createdAt,value
2023-03-22T00:01:22.686Z,98983.11
2023-03-22T00:06:26.917Z,98978.70
2023-03-22T00:11:30.569Z,98975.00
2023-03-22T00:16:34.205Z,98970.60
2023-03-22T00:21:37.830Z,98971.75
2023-03-22T00:26:41.557Z,98966.02
2023-03-22T00:31:45.227Z,98962.97
2023-03-22T00:36:48.855Z,98958.39
2023-03-22T00:41:52.194Z,98959.84
2023-03-22T00:46:55.650Z,98948.05
2023-03-22T00:51:59.204Z,98949.44
2023-03-22T00:57:07.957Z,98945.54
2023-03-22T01:02:15.177Z,98936.29
2023-03-22T01:07:21.913Z,98937.60
2023-03-22T01:12:25.519Z,98940.08
2023-03-22T01:17:28.765Z,98937.94
2023-03-22T01:22:32.205Z,98928.43
2023-03-22T01:27:36.309Z,98926.38
2023-03-22T01:32:40.236Z,98925.78
2023-03-22T01:37:44.024Z,98920.46
2023-03-22T01:42:48.080Z,98911.43
2023-03-22T01:47:59.879Z,98910.09
2023-03-22T01:53:05.335Z,98897.20
2023-03-22T01:58:10.810Z,98890.05
2023-03-22T02:03:56.033Z,98887.70
2023-03-22T02:08:59.867Z,98876.92
2023-03-22T02:14:29.525Z,98867.02
2023-03-22T02:20:25.642Z,98863.69
2023-03-22T02:25:32.912Z,98869.86
2023-03-22T02:30:48.422Z,98863.38
2023-03-22T02:36:12.937Z,98860.04
2023-03-22T02:42:03.224Z,98849.92
2023-03-22T02:47:17.338Z,98848.90
2023-03-22T02:52:29.865Z,98848.85
2023-03-22T02:57:45.649Z,98848.72
2023-03-22T03:02:57.842Z,98845.80
2023-03-22T03:08:02.916Z,98848.68
2023-03-22T03:13:06.764Z,98846.17
2023-03-22T03:18:26.744Z,98851.80
2023-03-22T03:23:49.869Z,98858.25
2023-03-22T03:28:58.396Z,98865.30
2023-03-22T03:34:23.556Z,98863.59
2023-03-22T03:39:30.750Z,98869.39
2023-03-22T03:44:36.804Z,98868.66
2023-03-22T03:49:41.018Z,98869.39
2023-03-22T03:54:45.878Z,98866.25
2023-03-22T03:59:52.237Z,98865.94
2023-03-22T04:05:07.687Z,98877.25
2023-03-22T04:10:11.016Z,98879.61
2023-03-22T04:15:14.354Z,98881.53
2023-03-22T04:20:19.862Z,98879.85
2023-03-22T04:25:23.601Z,98874.73
2023-03-22T04:30:45.921Z,98875.44
2023-03-22T04:36:11.475Z,98876.39
2023-03-22T04:41:26.542Z,98880.02
2023-03-22T04:46:34.973Z,98888.63
2023-03-22T04:51:40.008Z,98887.15
2023-03-22T04:56:58.609Z,98890.23
2023-03-22T05:02:04.186Z,98894.85
2023-03-22T05:07:14.234Z,98889.95
2023-03-22T05:12:27.877Z,98888.38
2023-03-22T05:17:38.642Z,98894.58
2023-03-22T05:22:42.124Z,98895.89
2023-03-22T05:27:47.078Z,98905.16
2023-03-22T05:33:11.090Z,98908.01
2023-03-22T05:38:19.381Z,98911.80
2023-03-22T05:43:26.775Z,98909.70
2023-03-22T05:48:30.783Z,98913.54
2023-03-22T05:53:35.072Z,98902.69
2023-03-22T05:59:02.971Z,98902.45
2023-03-22T06:04:07.018Z,98900.90
2023-03-22T06:09:20.449Z,98907.98
2023-03-22T06:14:26.637Z,98909.81
2023-03-22T06:19:54.613Z,98909.26
2023-03-22T06:24:58.058Z,98912.92
2023-03-22T06:30:09.222Z,98915.66
2023-03-22T06:35:23.602Z,98910.84
2023-03-22T06:40:28.313Z,98915.67
2023-03-22T06:45:33.698Z,98912.80
2023-03-22T06:50:40.368Z,98910.23
2023-03-22T06:55:55.649Z,98906.86
2023-03-22T07:01:00.887Z,98907.58
2023-03-22T07:06:07.193Z,98910.40
2023-03-22T07:11:12.585Z,98912.05
2023-03-22T07:16:19.856Z,98905.41
2023-03-22T07:21:36.375Z,98903.68
2023-03-22T07:26:42.424Z,98910.86
2023-03-22T07:31:46.905Z,98909.95
2023-03-22T07:37:00.179Z,98908.33
2023-03-22T07:42:04.384Z,98902.96
2023-03-22T07:47:39.881Z,98894.50
2023-03-22T07:53:12.033Z,98888.52
2023-03-22T07:58:15.389Z,98900.48
2023-03-22T08:03:19.388Z,98900.40
2023-03-22T08:08:37.229Z,98891.85
2023-03-22T08:13:41.343Z,98890.39
2023-03-22T08:18:46.055Z,98885.81
2023-03-22T08:23:50.017Z,98879.75
2023-03-22T08:29:31.607Z,98880.61
2023-03-22T08:34:40.157Z,98874.02
2023-03-22T08:39:44.225Z,98876.95
2023-03-22T08:45:01.905Z,98871.84
2023-03-22T08:50:07.258Z,98866.60
2023-03-22T08:55:17.880Z,98868.73
2023-03-22T09:00:48.660Z,98866.44
2023-03-22T09:06:02.314Z,98869.38
2023-03-22T09:11:12.580Z,98862.88
2023-03-22T09:16:17.155Z,98863.48
2023-03-22T09:21:22.234Z,98856.95
2023-03-22T09:26:37.302Z,98854.75
2023-03-22T09:31:42.184Z,98844.52
2023-03-22T09:36:53.066Z,98831.06
2023-03-22T09:42:03.513Z,98823.89
2023-03-22T09:47:14.009Z,98822.30
2023-03-22T09:52:18.246Z,98817.11
2023-03-22T09:57:37.745Z,98813.86
2023-03-22T10:03:05.697Z,98810.06
2023-03-22T10:08:22.526Z,98802.44
2023-03-22T10:14:00.465Z,98799.39
2023-03-22T10:19:45.255Z,98793.15
2023-03-22T10:24:51.406Z,98789.48
2023-03-22T10:30:10.721Z,98788.62
2023-03-22T10:35:15.741Z,98788.75
2023-03-22T10:40:25.092Z,98781.20
2023-03-22T10:45:28.855Z,98780.89
2023-03-22T10:50:36.877Z,98775.84
2023-03-22T10:55:42.032Z,98763.99
2023-03-22T11:00:48.676Z,98759.80
2023-03-22T11:06:19.704Z,98748.04
2023-03-22T11:11:25.064Z,98746.65
2023-03-22T11:16:31.230Z,98741.83
2023-03-22T11:21:35.253Z,98731.14
2023-03-22T11:26:41.334Z,98726.88
2023-03-22T11:31:55.632Z,98720.73
2023-03-22T11:37:02.418Z,98722.13
2023-03-22T11:42:06.937Z,98716.84
2023-03-22T11:47:14.152Z,98710.27
2023-03-22T11:52:27.928Z,98701.39
2023-03-22T11:57:34.923Z,98700.63
2023-03-22T12:02:48.872Z,98695.14
2023-03-22T12:08:02.567Z,98694.25
2023-03-22T12:13:15.959Z,98687.52
2023-03-22T12:18:28.306Z,98681.74
2023-03-22T12:23:35.517Z,98674.91
2023-03-22T12:28:49.824Z,98671.36
2023-03-22T12:33:56.672Z,98669.19
2023-03-22T12:39:02.732Z,98661.14
2023-03-22T12:44:18.816Z,98650.48
2023-03-22T12:49:32.634Z,98648.02
2023-03-22T12:54:38.040Z,98645.88
2023-03-22T12:59:45.584Z,98638.59
2023-03-22T13:05:05.343Z,98631.40
2023-03-22T13:10:31.381Z,98631.51
2023-03-22T13:15:42.308Z,98626.70
2023-03-22T13:21:11.795Z,98622.27
2023-03-22T13:26:16.482Z,98612.90
2023-03-22T13:31:37.994Z,98605.04
2023-03-22T13:36:50.395Z,98601.39
2023-03-22T13:42:09.017Z,98591.43
2023-03-22T13:47:46.708Z,98584.08
2023-03-22T13:53:22.497Z,98573.86
2023-03-22T13:58:36.681Z,98570.50
2023-03-22T14:03:43.061Z,98564.82
2023-03-22T14:08:50.065Z,98555.39
2023-03-22T14:14:16.096Z,98550.23
2023-03-22T14:19:23.743Z,98550.56
